sensor_id;sensor_type;location;lat;lon;timestamp;P1;durP1;ratioP1;P2;durP2;ratioP2
57107;SDS011;42987;52.916;6.542;2023-03-12T00:01:51;11.27;;;9.93;;
57107;SDS011;42987;52.916;6.542;2023-03-12T00:04:17;14.43;;;9.83;;
57107;SDS011;42987;52.916;6.542;2023-03-12T00:06:43;10.43;;;9.33;;
57107;SDS011;42987;52.916;6.542;2023-03-12T00:09:08;13.23;;;11.63;;
57107;SDS011;42987;52.916;6.542;2023-03-12T00:11:34;15.07;;;12.30;;
57107;SDS011;42987;52.916;6.542;2023-03-12T00:14:00;15.77;;;11.27;;
57107;SDS011;42987;52.916;6.542;2023-03-12T00:16:26;12.90;;;11.00;;
57107;SDS011;42987;52.916;6.542;2023-03-12T00:18:54;12.70;;;10.93;;
57107;SDS011;42987;52.916;6.542;2023-03-12T00:21:20;13.23;;;9.80;;
57107;SDS011;42987;52.916;6.542;2023-03-12T00:23:47;10.77;;;9.27;;
57107;SDS011;42987;52.916;6.542;2023-03-12T00:26:14;12.40;;;10.63;;
57107;SDS011;42987;52.916;6.542;2023-03-12T00:28:40;9.87;;;8.70;;
57107;SDS011;42987;52.916;6.542;2023-03-12T00:31:14;11.13;;;9.13;;
57107;SDS011;42987;52.916;6.542;2023-03-12T00:33:41;9.70;;;8.70;;
57107;SDS011;42987;52.916;6.542;2023-03-12T00:36:07;11.77;;;10.40;;
57107;SDS011;42987;52.916;6.542;2023-03-12T00:38:36;14.83;;;11.77;;
57107;SDS011;42987;52.916;6.542;2023-03-12T00:41:02;12.27;;;10.87;;
57107;SDS011;42987;52.916;6.542;2023-03-12T00:43:28;15.40;;;11.73;;
57107;SDS011;42987;52.916;6.542;2023-03-12T00:45:54;18.00;;;14.63;;
57107;SDS011;42987;52.916;6.542;2023-03-12T00:48:20;14.97;;;11.53;;
57107;SDS011;42987;52.916;6.542;2023-03-12T00:50:46;15.37;;;11.97;;
57107;SDS011;42987;52.916;6.542;2023-03-12T00:53:12;13.77;;;10.67;;
57107;SDS011;42987;52.916;6.542;2023-03-12T00:55:37;13.77;;;12.37;;
57107;SDS011;42987;52.916;6.542;2023-03-12T00:58:03;14.00;;;10.97;;
57107;SDS011;42987;52.916;6.542;2023-03-12T01:00:29;14.50;;;12.57;;
57107;SDS011;42987;52.916;6.542;2023-03-12T01:02:55;13.50;;;12.10;;
57107;SDS011;42987;52.916;6.542;2023-03-12T01:05:21;13.17;;;11.00;;
57107;SDS011;42987;52.916;6.542;2023-03-12T01:07:47;14.83;;;12.10;;
57107;SDS011;42987;52.916;6.542;2023-03-12T01:10:13;16.83;;;11.63;;
57107;SDS011;42987;52.916;6.542;2023-03-12T01:12:44;13.67;;;11.70;;
57107;SDS011;42987;52.916;6.542;2023-03-12T01:15:11;14.90;;;12.73;;
57107;SDS011;42987;52.916;6.542;2023-03-12T01:17:39;13.45;;;11.95;;
57107;SDS011;42987;52.916;6.542;2023-03-12T01:20:05;12.93;;;10.57;;
57107;SDS011;42987;52.916;6.542;2023-03-12T01:22:32;12.33;;;11.03;;
57107;SDS011;42987;52.916;6.542;2023-03-12T01:24:59;13.70;;;10.83;;
57107;SDS011;42987;52.916;6.542;2023-03-12T01:27:24;14.33;;;11.63;;
57107;SDS011;42987;52.916;6.542;2023-03-12T01:29:50;11.57;;;10.40;;
57107;SDS011;42987;52.916;6.542;2023-03-12T01:32:16;13.10;;;11.33;;
57107;SDS011;42987;52.916;6.542;2023-03-12T01:34:43;12.07;;;10.77;;
57107;SDS011;42987;52.916;6.542;2023-03-12T01:37:09;13.37;;;11.37;;
57107;SDS011;42987;52.916;6.542;2023-03-12T01:39:35;13.40;;;11.30;;
57107;SDS011;42987;52.916;6.542;2023-03-12T01:42:01;16.63;;;12.70;;
57107;SDS011;42987;52.916;6.542;2023-03-12T01:44:27;14.90;;;11.70;;
57107;SDS011;42987;52.916;6.542;2023-03-12T01:46:53;14.20;;;12.40;;
57107;SDS011;42987;52.916;6.542;2023-03-12T01:54:38;14.80;;;11.53;;
57107;SDS011;42987;52.916;6.542;2023-03-12T01:57:09;16.13;;;12.00;;
57107;SDS011;42987;52.916;6.542;2023-03-12T01:59:40;16.33;;;11.88;;
57107;SDS011;42987;52.916;6.542;2023-03-12T02:02:15;13.93;;;11.97;;
57107;SDS011;42987;52.916;6.542;2023-03-12T02:04:44;13.67;;;11.87;;
57107;SDS011;42987;52.916;6.542;2023-03-12T02:07:15;12.40;;;11.10;;
57107;SDS011;42987;52.916;6.542;2023-03-12T02:09:46;12.93;;;10.60;;
57107;SDS011;42987;52.916;6.542;2023-03-12T02:12:13;14.07;;;11.50;;
57107;SDS011;42987;52.916;6.542;2023-03-12T02:14:41;16.60;;;12.37;;
57107;SDS011;42987;52.916;6.542;2023-03-12T02:17:07;16.87;;;12.03;;
57107;SDS011;42987;52.916;6.542;2023-03-12T02:22:05;14.73;;;12.70;;
57107;SDS011;42987;52.916;6.542;2023-03-12T02:24:34;15.80;;;12.13;;
57107;SDS011;42987;52.916;6.542;2023-03-12T02:27:10;14.90;;;11.47;;
57107;SDS011;42987;52.916;6.542;2023-03-12T02:29:36;14.77;;;11.80;;
57107;SDS011;42987;52.916;6.542;2023-03-12T02:32:05;17.47;;;12.43;;
57107;SDS011;42987;52.916;6.542;2023-03-12T02:34:33;14.47;;;12.17;;
57107;SDS011;42987;52.916;6.542;2023-03-12T02:37:00;14.23;;;11.73;;
57107;SDS011;42987;52.916;6.542;2023-03-12T02:39:25;14.30;;;12.37;;
57107;SDS011;42987;52.916;6.542;2023-03-12T02:41:56;15.13;;;11.10;;
57107;SDS011;42987;52.916;6.542;2023-03-12T02:44:25;18.70;;;11.77;;
57107;SDS011;42987;52.916;6.542;2023-03-12T02:46:54;14.38;;;11.90;;
57107;SDS011;42987;52.916;6.542;2023-03-12T02:49:23;14.40;;;10.57;;
57107;SDS011;42987;52.916;6.542;2023-03-12T02:51:51;13.03;;;10.80;;
57107;SDS011;42987;52.916;6.542;2023-03-12T02:54:17;12.83;;;10.50;;
57107;SDS011;42987;52.916;6.542;2023-03-12T02:56:45;14.63;;;9.73;;
57107;SDS011;42987;52.916;6.542;2023-03-12T02:59:11;12.07;;;9.00;;
57107;SDS011;42987;52.916;6.542;2023-03-12T03:01:38;10.90;;;9.47;;
57107;SDS011;42987;52.916;6.542;2023-03-12T03:04:04;10.33;;;8.03;;
57107;SDS011;42987;52.916;6.542;2023-03-12T03:06:33;11.67;;;8.43;;
57107;SDS011;42987;52.916;6.542;2023-03-12T03:09:00;12.23;;;9.13;;
57107;SDS011;42987;52.916;6.542;2023-03-12T03:11:26;11.90;;;8.60;;
57107;SDS011;42987;52.916;6.542;2023-03-12T03:13:52;10.03;;;8.43;;
57107;SDS011;42987;52.916;6.542;2023-03-12T03:16:18;11.80;;;8.07;;
57107;SDS011;42987;52.916;6.542;2023-03-12T03:18:44;9.97;;;7.80;;
57107;SDS011;42987;52.916;6.542;2023-03-12T03:21:11;10.93;;;8.27;;
57107;SDS011;42987;52.916;6.542;2023-03-12T03:23:41;10.80;;;7.75;;
57107;SDS011;42987;52.916;6.542;2023-03-12T03:26:08;10.17;;;7.53;;
57107;SDS011;42987;52.916;6.542;2023-03-12T03:28:34;10.67;;;7.77;;
57107;SDS011;42987;52.916;6.542;2023-03-12T03:31:00;10.80;;;8.97;;
57107;SDS011;42987;52.916;6.542;2023-03-12T03:33:26;10.13;;;7.80;;
57107;SDS011;42987;52.916;6.542;2023-03-12T03:35:54;9.83;;;7.90;;
57107;SDS011;42987;52.916;6.542;2023-03-12T03:38:21;10.43;;;7.60;;
57107;SDS011;42987;52.916;6.542;2023-03-12T03:40:47;9.77;;;7.33;;
57107;SDS011;42987;52.916;6.542;2023-03-12T03:43:13;10.70;;;7.67;;
57107;SDS011;42987;52.916;6.542;2023-03-12T03:45:39;8.53;;;7.67;;
57107;SDS011;42987;52.916;6.542;2023-03-12T03:48:05;10.90;;;7.90;;
57107;SDS011;42987;52.916;6.542;2023-03-12T03:50:31;10.63;;;7.40;;
57107;SDS011;42987;52.916;6.542;2023-03-12T03:52:57;9.60;;;7.80;;
57107;SDS011;42987;52.916;6.542;2023-03-12T03:55:22;10.87;;;8.67;;
57107;SDS011;42987;52.916;6.542;2023-03-12T03:57:48;10.37;;;7.17;;
57107;SDS011;42987;52.916;6.542;2023-03-12T04:00:14;11.17;;;7.80;;
57107;SDS011;42987;52.916;6.542;2023-03-12T04:02:42;10.57;;;7.00;;
57107;SDS011;42987;52.916;6.542;2023-03-12T04:05:08;9.27;;;8.00;;
57107;SDS011;42987;52.916;6.542;2023-03-12T04:07:35;12.70;;;7.77;;
57107;SDS011;42987;52.916;6.542;2023-03-12T04:10:01;10.20;;;7.90;;
57107;SDS011;42987;52.916;6.542;2023-03-12T04:12:28;9.83;;;7.63;;
57107;SDS011;42987;52.916;6.542;2023-03-12T04:14:54;11.10;;;7.67;;
57107;SDS011;42987;52.916;6.542;2023-03-12T04:17:20;9.40;;;7.97;;
57107;SDS011;42987;52.916;6.542;2023-03-12T04:19:46;12.20;;;7.90;;
57107;SDS011;42987;52.916;6.542;2023-03-12T04:22:12;12.17;;;7.83;;
57107;SDS011;42987;52.916;6.542;2023-03-12T04:24:38;10.87;;;8.07;;
57107;SDS011;42987;52.916;6.542;2023-03-12T04:27:04;10.03;;;7.73;;
57107;SDS011;42987;52.916;6.542;2023-03-12T04:29:30;10.73;;;8.30;;
57107;SDS011;42987;52.916;6.542;2023-03-12T04:31:55;9.63;;;8.13;;
57107;SDS011;42987;52.916;6.542;2023-03-12T04:34:21;10.77;;;7.37;;
57107;SDS011;42987;52.916;6.542;2023-03-12T04:36:47;12.37;;;8.37;;
57107;SDS011;42987;52.916;6.542;2023-03-12T04:39:17;11.20;;;7.83;;
57107;SDS011;42987;52.916;6.542;2023-03-12T04:41:43;10.18;;;7.50;;
57107;SDS011;42987;52.916;6.542;2023-03-12T04:44:09;11.90;;;7.70;;
57107;SDS011;42987;52.916;6.542;2023-03-12T04:46:35;10.10;;;7.57;;
57107;SDS011;42987;52.916;6.542;2023-03-12T04:49:01;11.47;;;7.10;;
57107;SDS011;42987;52.916;6.542;2023-03-12T04:51:28;11.07;;;7.40;;
57107;SDS011;42987;52.916;6.542;2023-03-12T04:53:55;10.20;;;6.93;;
57107;SDS011;42987;52.916;6.542;2023-03-12T04:56:22;10.60;;;7.50;;
57107;SDS011;42987;52.916;6.542;2023-03-12T04:58:48;9.83;;;7.13;;
57107;SDS011;42987;52.916;6.542;2023-03-12T05:03:54;12.82;;;7.63;;
57107;SDS011;42987;52.916;6.542;2023-03-12T05:06:21;9.77;;;7.07;;
57107;SDS011;42987;52.916;6.542;2023-03-12T05:08:47;11.40;;;7.20;;
57107;SDS011;42987;52.916;6.542;2023-03-12T05:11:13;11.00;;;6.83;;
57107;SDS011;42987;52.916;6.542;2023-03-12T05:13:40;11.40;;;7.30;;
57107;SDS011;42987;52.916;6.542;2023-03-12T05:16:06;12.23;;;7.23;;
57107;SDS011;42987;52.916;6.542;2023-03-12T05:18:33;13.00;;;7.33;;
57107;SDS011;42987;52.916;6.542;2023-03-12T05:21:00;10.33;;;7.67;;
57107;SDS011;42987;52.916;6.542;2023-03-12T05:23:28;12.03;;;7.27;;
57107;SDS011;42987;52.916;6.542;2023-03-12T05:25:54;9.90;;;7.20;;
57107;SDS011;42987;52.916;6.542;2023-03-12T05:28:20;10.30;;;7.13;;
57107;SDS011;42987;52.916;6.542;2023-03-12T05:30:46;8.93;;;7.13;;
57107;SDS011;42987;52.916;6.542;2023-03-12T05:33:12;9.20;;;7.47;;
57107;SDS011;42987;52.916;6.542;2023-03-12T05:35:38;11.50;;;8.10;;
57107;SDS011;42987;52.916;6.542;2023-03-12T05:38:04;10.07;;;7.43;;
57107;SDS011;42987;52.916;6.542;2023-03-12T05:40:29;12.37;;;7.80;;
57107;SDS011;42987;52.916;6.542;2023-03-12T05:42:55;11.10;;;8.13;;
57107;SDS011;42987;52.916;6.542;2023-03-12T05:45:21;9.93;;;7.83;;
57107;SDS011;42987;52.916;6.542;2023-03-12T05:47:47;9.70;;;7.43;;
57107;SDS011;42987;52.916;6.542;2023-03-12T05:50:12;11.10;;;8.07;;
57107;SDS011;42987;52.916;6.542;2023-03-12T05:52:40;10.07;;;7.83;;
57107;SDS011;42987;52.916;6.542;2023-03-12T05:55:06;12.93;;;7.80;;
57107;SDS011;42987;52.916;6.542;2023-03-12T05:57:32;12.67;;;7.57;;
57107;SDS011;42987;52.916;6.542;2023-03-12T05:59:58;12.20;;;8.13;;
57107;SDS011;42987;52.916;6.542;2023-03-12T06:02:27;18.43;;;8.43;;
57107;SDS011;42987;52.916;6.542;2023-03-12T06:04:52;10.30;;;7.73;;
57107;SDS011;42987;52.916;6.542;2023-03-12T06:07:18;10.90;;;8.13;;
57107;SDS011;42987;52.916;6.542;2023-03-12T06:09:44;11.10;;;7.97;;
57107;SDS011;42987;52.916;6.542;2023-03-12T06:12:10;13.23;;;8.77;;
57107;SDS011;42987;52.916;6.542;2023-03-12T06:14:35;9.97;;;7.87;;
57107;SDS011;42987;52.916;6.542;2023-03-12T06:17:01;11.27;;;8.20;;
57107;SDS011;42987;52.916;6.542;2023-03-12T06:19:27;13.10;;;8.57;;
57107;SDS011;42987;52.916;6.542;2023-03-12T06:21:53;10.60;;;8.17;;
57107;SDS011;42987;52.916;6.542;2023-03-12T06:24:19;11.47;;;9.13;;
57107;SDS011;42987;52.916;6.542;2023-03-12T06:26:44;10.83;;;8.80;;
57107;SDS011;42987;52.916;6.542;2023-03-12T06:29:10;11.00;;;8.73;;
57107;SDS011;42987;52.916;6.542;2023-03-12T06:31:36;11.77;;;8.77;;
57107;SDS011;42987;52.916;6.542;2023-03-12T06:34:03;10.47;;;8.80;;
57107;SDS011;42987;52.916;6.542;2023-03-12T06:36:34;13.47;;;8.30;;
57107;SDS011;42987;52.916;6.542;2023-03-12T06:39:00;12.33;;;8.83;;
57107;SDS011;42987;52.916;6.542;2023-03-12T06:41:26;11.77;;;8.40;;
57107;SDS011;42987;52.916;6.542;2023-03-12T06:43:52;14.50;;;9.20;;
57107;SDS011;42987;52.916;6.542;2023-03-12T06:46:18;11.27;;;8.70;;
57107;SDS011;42987;52.916;6.542;2023-03-12T06:48:50;11.87;;;8.83;;
57107;SDS011;42987;52.916;6.542;2023-03-12T06:51:15;13.37;;;9.03;;
57107;SDS011;42987;52.916;6.542;2023-03-12T06:53:42;12.00;;;8.07;;
57107;SDS011;42987;52.916;6.542;2023-03-12T06:56:09;11.67;;;8.60;;
57107;SDS011;42987;52.916;6.542;2023-03-12T06:58:35;12.57;;;8.93;;
57107;SDS011;42987;52.916;6.542;2023-03-12T07:01:01;15.10;;;8.67;;
57107;SDS011;42987;52.916;6.542;2023-03-12T07:03:30;11.07;;;9.37;;
57107;SDS011;42987;52.916;6.542;2023-03-12T07:05:56;12.23;;;9.83;;
57107;SDS011;42987;52.916;6.542;2023-03-12T07:08:23;12.43;;;10.03;;
57107;SDS011;42987;52.916;6.542;2023-03-12T07:10:49;13.33;;;10.00;;
57107;SDS011;42987;52.916;6.542;2023-03-12T07:13:15;12.33;;;10.03;;
57107;SDS011;42987;52.916;6.542;2023-03-12T07:15:42;15.80;;;10.43;;
57107;SDS011;42987;52.916;6.542;2023-03-12T07:18:10;12.23;;;10.80;;
57107;SDS011;42987;52.916;6.542;2023-03-12T07:20:37;13.40;;;10.97;;
57107;SDS011;42987;52.916;6.542;2023-03-12T07:23:04;12.37;;;11.03;;
57107;SDS011;42987;52.916;6.542;2023-03-12T07:25:30;14.20;;;11.60;;
57107;SDS011;42987;52.916;6.542;2023-03-12T07:27:58;14.57;;;11.97;;
57107;SDS011;42987;52.916;6.542;2023-03-12T07:30:24;17.90;;;13.07;;
57107;SDS011;42987;52.916;6.542;2023-03-12T07:32:50;14.43;;;12.60;;
57107;SDS011;42987;52.916;6.542;2023-03-12T07:35:19;15.37;;;13.70;;
57107;SDS011;42987;52.916;6.542;2023-03-12T07:37:45;15.73;;;14.10;;
57107;SDS011;42987;52.916;6.542;2023-03-12T07:40:10;15.30;;;13.70;;
57107;SDS011;42987;52.916;6.542;2023-03-12T07:42:36;17.33;;;15.53;;
57107;SDS011;42987;52.916;6.542;2023-03-12T07:45:02;17.27;;;15.47;;
57107;SDS011;42987;52.916;6.542;2023-03-12T07:47:29;19.27;;;16.37;;
57107;SDS011;42987;52.916;6.542;2023-03-12T07:49:55;19.03;;;17.13;;
57107;SDS011;42987;52.916;6.542;2023-03-12T07:52:20;18.20;;;16.33;;
57107;SDS011;42987;52.916;6.542;2023-03-12T07:54:47;19.47;;;17.00;;
57107;SDS011;42987;52.916;6.542;2023-03-12T07:57:13;19.63;;;17.73;;
57107;SDS011;42987;52.916;6.542;2023-03-12T07:59:39;17.97;;;16.17;;
57107;SDS011;42987;52.916;6.542;2023-03-12T08:02:05;18.30;;;16.47;;
57107;SDS011;42987;52.916;6.542;2023-03-12T08:04:31;18.40;;;16.30;;
57107;SDS011;42987;52.916;6.542;2023-03-12T08:06:56;19.07;;;17.20;;
57107;SDS011;42987;52.916;6.542;2023-03-12T08:09:22;17.60;;;15.80;;
57107;SDS011;42987;52.916;6.542;2023-03-12T08:11:48;19.20;;;17.23;;
57107;SDS011;42987;52.916;6.542;2023-03-12T08:14:14;18.10;;;16.40;;
57107;SDS011;42987;52.916;6.542;2023-03-12T08:16:39;18.60;;;16.60;;
57107;SDS011;42987;52.916;6.542;2023-03-12T08:19:05;18.50;;;16.37;;
57107;SDS011;42987;52.916;6.542;2023-03-12T08:21:31;18.80;;;16.90;;
57107;SDS011;42987;52.916;6.542;2023-03-12T08:23:57;17.57;;;15.70;;
57107;SDS011;42987;52.916;6.542;2023-03-12T08:26:22;18.07;;;16.27;;
57107;SDS011;42987;52.916;6.542;2023-03-12T08:28:51;19.33;;;16.73;;
57107;SDS011;42987;52.916;6.542;2023-03-12T08:31:17;18.13;;;16.23;;
57107;SDS011;42987;52.916;6.542;2023-03-12T08:33:42;18.70;;;16.80;;
57107;SDS011;42987;52.916;6.542;2023-03-12T08:36:11;19.73;;;17.20;;
57107;SDS011;42987;52.916;6.542;2023-03-12T08:38:37;18.83;;;16.83;;
57107;SDS011;42987;52.916;6.542;2023-03-12T08:41:02;18.43;;;16.73;;
57107;SDS011;42987;52.916;6.542;2023-03-12T08:43:28;23.53;;;16.77;;
57107;SDS011;42987;52.916;6.542;2023-03-12T08:45:55;18.57;;;16.67;;
57107;SDS011;42987;52.916;6.542;2023-03-12T08:48:22;22.63;;;18.37;;
57107;SDS011;42987;52.916;6.542;2023-03-12T08:50:48;19.97;;;16.80;;
57107;SDS011;42987;52.916;6.542;2023-03-12T08:53:14;20.50;;;18.60;;
57107;SDS011;42987;52.916;6.542;2023-03-12T08:55:41;18.43;;;16.53;;
57107;SDS011;42987;52.916;6.542;2023-03-12T08:58:07;20.47;;;17.13;;
57107;SDS011;42987;52.916;6.542;2023-03-12T09:00:33;19.93;;;17.13;;
57107;SDS011;42987;52.916;6.542;2023-03-12T09:02:59;19.77;;;17.60;;
57107;SDS011;42987;52.916;6.542;2023-03-12T09:05:25;22.07;;;18.47;;
57107;SDS011;42987;52.916;6.542;2023-03-12T09:07:54;21.37;;;19.00;;
57107;SDS011;42987;52.916;6.542;2023-03-12T09:10:21;20.93;;;18.83;;
57107;SDS011;42987;52.916;6.542;2023-03-12T09:12:47;21.23;;;19.03;;
57107;SDS011;42987;52.916;6.542;2023-03-12T09:15:13;21.00;;;18.87;;
57107;SDS011;42987;52.916;6.542;2023-03-12T09:17:39;22.60;;;20.30;;
57107;SDS011;42987;52.916;6.542;2023-03-12T09:20:07;21.97;;;19.93;;
57107;SDS011;42987;52.916;6.542;2023-03-12T09:22:34;22.90;;;20.67;;
57107;SDS011;42987;52.916;6.542;2023-03-12T09:25:04;23.87;;;20.63;;
57107;SDS011;42987;52.916;6.542;2023-03-12T09:27:39;24.10;;;21.73;;
57107;SDS011;42987;52.916;6.542;2023-03-12T09:30:07;27.17;;;24.47;;
57107;SDS011;42987;52.916;6.542;2023-03-12T09:32:35;25.93;;;23.13;;
57107;SDS011;42987;52.916;6.542;2023-03-12T09:35:01;26.00;;;23.30;;
57107;SDS011;42987;52.916;6.542;2023-03-12T09:37:29;26.50;;;23.87;;
57107;SDS011;42987;52.916;6.542;2023-03-12T09:39:56;26.33;;;23.80;;
57107;SDS011;42987;52.916;6.542;2023-03-12T09:42:42;27.70;;;25.00;;
57107;SDS011;42987;52.916;6.542;2023-03-12T09:45:39;25.67;;;23.20;;
57107;SDS011;42987;52.916;6.542;2023-03-12T09:48:06;30.37;;;27.30;;
57107;SDS011;42987;52.916;6.542;2023-03-12T09:51:05;28.07;;;25.47;;
57107;SDS011;42987;52.916;6.542;2023-03-12T09:53:42;28.37;;;25.67;;
57107;SDS011;42987;52.916;6.542;2023-03-12T09:56:16;29.17;;;26.57;;
57107;SDS011;42987;52.916;6.542;2023-03-12T09:58:43;31.50;;;28.60;;
57107;SDS011;42987;52.916;6.542;2023-03-12T10:01:35;29.00;;;26.20;;
57107;SDS011;42987;52.916;6.542;2023-03-12T10:04:17;30.37;;;27.43;;
57107;SDS011;42987;52.916;6.542;2023-03-12T10:23:24;33.13;;;30.17;;
57107;SDS011;42987;52.916;6.542;2023-03-12T10:26:21;34.63;;;31.23;;
57107;SDS011;42987;52.916;6.542;2023-03-12T10:29:02;33.27;;;30.07;;
57107;SDS011;42987;52.916;6.542;2023-03-12T10:31:47;34.27;;;31.00;;
57107;SDS011;42987;52.916;6.542;2023-03-12T10:37:13;35.40;;;32.13;;
57107;SDS011;42987;52.916;6.542;2023-03-12T10:39:43;39.37;;;35.40;;
57107;SDS011;42987;52.916;6.542;2023-03-12T10:42:17;37.03;;;33.53;;
57107;SDS011;42987;52.916;6.542;2023-03-12T10:44:50;38.20;;;34.63;;
57107;SDS011;42987;52.916;6.542;2023-03-12T10:50:17;37.67;;;33.70;;
57107;SDS011;42987;52.916;6.542;2023-03-12T10:52:44;38.43;;;34.43;;
57107;SDS011;42987;52.916;6.542;2023-03-12T10:55:15;43.67;;;39.13;;
57107;SDS011;42987;52.916;6.542;2023-03-12T10:57:47;38.23;;;34.63;;
57107;SDS011;42987;52.916;6.542;2023-03-12T11:00:21;43.40;;;39.30;;
57107;SDS011;42987;52.916;6.542;2023-03-12T11:03:32;39.43;;;35.40;;
57107;SDS011;42987;52.916;6.542;2023-03-12T11:05:46;39.80;;;35.63;;
57107;SDS011;42987;52.916;6.542;2023-03-12T11:08:24;38.03;;;34.03;;
57107;SDS011;42987;52.916;6.542;2023-03-12T11:10:56;35.73;;;32.40;;
57107;SDS011;42987;52.916;6.542;2023-03-12T11:16:22;42.03;;;37.33;;
57107;SDS011;42987;52.916;6.542;2023-03-12T11:18:57;36.90;;;33.20;;
57107;SDS011;42987;52.916;6.542;2023-03-12T11:21:25;37.70;;;33.50;;
57107;SDS011;42987;52.916;6.542;2023-03-12T11:26:22;39.90;;;35.60;;
57107;SDS011;42987;52.916;6.542;2023-03-12T11:31:57;39.27;;;35.03;;
57107;SDS011;42987;52.916;6.542;2023-03-12T11:34:32;37.67;;;33.72;;
57107;SDS011;42987;52.916;6.542;2023-03-12T11:51:37;47.85;;;39.10;;
57107;SDS011;42987;52.916;6.542;2023-03-12T11:54:36;43.47;;;35.88;;
57107;SDS011;42987;52.916;6.542;2023-03-12T11:57:01;42.50;;;36.22;;
57107;SDS011;42987;52.916;6.542;2023-03-12T12:08:00;38.67;;;33.80;;
57107;SDS011;42987;52.916;6.542;2023-03-12T12:13:41;44.63;;;36.63;;
57107;SDS011;42987;52.916;6.542;2023-03-12T12:27:18;42.28;;;35.00;;
57107;SDS011;42987;52.916;6.542;2023-03-12T12:35:36;46.65;;;36.20;;
57107;SDS011;42987;52.916;6.542;2023-03-12T12:38:12;51.65;;;37.20;;
57107;SDS011;42987;52.916;6.542;2023-03-12T12:41:02;50.13;;;37.00;;
57107;SDS011;42987;52.916;6.542;2023-03-12T12:46:15;48.58;;;35.55;;
57107;SDS011;42987;52.916;6.542;2023-03-12T12:48:49;46.25;;;33.97;;
57107;SDS011;42987;52.916;6.542;2023-03-12T12:51:27;48.45;;;34.92;;
57107;SDS011;42987;52.916;6.542;2023-03-12T12:56:38;35.45;;;28.90;;
57107;SDS011;42987;52.916;6.542;2023-03-12T13:02:02;37.72;;;29.00;;
57107;SDS011;42987;52.916;6.542;2023-03-12T13:04:37;45.92;;;33.03;;
57107;SDS011;42987;52.916;6.542;2023-03-12T13:09:43;44.20;;;30.63;;
57107;SDS011;42987;52.916;6.542;2023-03-12T13:14:46;40.08;;;29.52;;
57107;SDS011;42987;52.916;6.542;2023-03-12T13:17:24;38.35;;;28.55;;
57107;SDS011;42987;52.916;6.542;2023-03-12T13:28:36;49.35;;;32.20;;
57107;SDS011;42987;52.916;6.542;2023-03-12T13:36:31;58.63;;;35.58;;
57107;SDS011;42987;52.916;6.542;2023-03-12T13:41:39;67.03;;;37.45;;
57107;SDS011;42987;52.916;6.542;2023-03-12T13:54:58;59.75;;;33.17;;
57107;SDS011;42987;52.916;6.542;2023-03-12T13:57:47;50.13;;;28.35;;
57107;SDS011;42987;52.916;6.542;2023-03-12T14:00:24;61.55;;;29.42;;
57107;SDS011;42987;52.916;6.542;2023-03-12T14:03:05;59.42;;;29.25;;
57107;SDS011;42987;52.916;6.542;2023-03-12T14:05:46;54.67;;;28.33;;
57107;SDS011;42987;52.916;6.542;2023-03-12T14:08:19;53.83;;;25.38;;
57107;SDS011;42987;52.916;6.542;2023-03-12T14:13:38;42.42;;;23.20;;
57107;SDS011;42987;52.916;6.542;2023-03-12T14:17:17;47.92;;;21.73;;
57107;SDS011;42987;52.916;6.542;2023-03-12T14:19:33;46.83;;;23.27;;
57107;SDS011;42987;52.916;6.542;2023-03-12T14:22:03;47.78;;;22.55;;
57107;SDS011;42987;52.916;6.542;2023-03-12T14:24:41;56.88;;;22.38;;
57107;SDS011;42987;52.916;6.542;2023-03-12T14:27:23;47.22;;;19.02;;
57107;SDS011;42987;52.916;6.542;2023-03-12T14:32:39;47.13;;;17.42;;
57107;SDS011;42987;52.916;6.542;2023-03-12T14:43:52;39.65;;;13.55;;
57107;SDS011;42987;52.916;6.542;2023-03-12T14:46:20;42.30;;;13.13;;
57107;SDS011;42987;52.916;6.542;2023-03-12T14:48:48;34.15;;;11.98;;
57107;SDS011;42987;52.916;6.542;2023-03-12T14:51:21;41.55;;;12.50;;
57107;SDS011;42987;52.916;6.542;2023-03-12T14:53:51;44.20;;;12.98;;
57107;SDS011;42987;52.916;6.542;2023-03-12T14:56:28;41.83;;;12.88;;
57107;SDS011;42987;52.916;6.542;2023-03-12T14:59:00;36.60;;;12.98;;
57107;SDS011;42987;52.916;6.542;2023-03-12T15:01:44;33.22;;;12.57;;
57107;SDS011;42987;52.916;6.542;2023-03-12T15:04:15;38.60;;;10.98;;
57107;SDS011;42987;52.916;6.542;2023-03-12T15:06:46;38.40;;;10.93;;
57107;SDS011;42987;52.916;6.542;2023-03-12T15:09:19;41.92;;;10.98;;
57107;SDS011;42987;52.916;6.542;2023-03-12T15:11:56;39.33;;;11.35;;
57107;SDS011;42987;52.916;6.542;2023-03-12T15:14:29;35.70;;;10.55;;
57107;SDS011;42987;52.916;6.542;2023-03-12T15:16:58;31.60;;;9.32;;
57107;SDS011;42987;52.916;6.542;2023-03-12T15:19:26;34.20;;;9.80;;
57107;SDS011;42987;52.916;6.542;2023-03-12T15:21:59;37.67;;;9.60;;
57107;SDS011;42987;52.916;6.542;2023-03-12T15:24:25;41.95;;;10.70;;
57107;SDS011;42987;52.916;6.542;2023-03-12T15:26:57;44.35;;;11.93;;
57107;SDS011;42987;52.916;6.542;2023-03-12T15:29:43;33.63;;;10.15;;
57107;SDS011;42987;52.916;6.542;2023-03-12T15:32:12;38.20;;;10.40;;
57107;SDS011;42987;52.916;6.542;2023-03-12T15:34:38;36.08;;;11.60;;
57107;SDS011;42987;52.916;6.542;2023-03-12T15:40:02;36.88;;;10.95;;
57107;SDS011;42987;52.916;6.542;2023-03-12T15:42:40;40.30;;;10.43;;
57107;SDS011;42987;52.916;6.542;2023-03-12T15:45:17;36.97;;;10.82;;
57107;SDS011;42987;52.916;6.542;2023-03-12T15:47:45;40.63;;;11.52;;
57107;SDS011;42987;52.916;6.542;2023-03-12T15:52:59;31.38;;;9.35;;
57107;SDS011;42987;52.916;6.542;2023-03-12T15:58:46;36.78;;;9.85;;
57107;SDS011;42987;52.916;6.542;2023-03-12T16:01:22;38.38;;;9.07;;
57107;SDS011;42987;52.916;6.542;2023-03-12T16:03:52;36.40;;;9.63;;
57107;SDS011;42987;52.916;6.542;2023-03-12T16:06:19;39.38;;;9.82;;
57107;SDS011;42987;52.916;6.542;2023-03-12T16:08:50;36.08;;;10.02;;
57107;SDS011;42987;52.916;6.542;2023-03-12T16:11:28;42.08;;;9.57;;
57107;SDS011;42987;52.916;6.542;2023-03-12T16:13:57;41.60;;;9.55;;
57107;SDS011;42987;52.916;6.542;2023-03-12T16:16:32;37.70;;;9.10;;
57107;SDS011;42987;52.916;6.542;2023-03-12T16:18:58;36.40;;;8.35;;
57107;SDS011;42987;52.916;6.542;2023-03-12T16:21:24;35.53;;;7.93;;
57107;SDS011;42987;52.916;6.542;2023-03-12T16:23:50;38.50;;;8.82;;
57107;SDS011;42987;52.916;6.542;2023-03-12T16:26:16;37.40;;;8.70;;
57107;SDS011;42987;52.916;6.542;2023-03-12T16:28:42;40.88;;;8.50;;
57107;SDS011;42987;52.916;6.542;2023-03-12T16:31:12;37.25;;;9.00;;
57107;SDS011;42987;52.916;6.542;2023-03-12T16:33:39;40.78;;;9.93;;
57107;SDS011;42987;52.916;6.542;2023-03-12T16:36:09;37.70;;;9.15;;
57107;SDS011;42987;52.916;6.542;2023-03-12T16:38:40;35.45;;;8.68;;
57107;SDS011;42987;52.916;6.542;2023-03-12T16:41:16;48.20;;;10.30;;
57107;SDS011;42987;52.916;6.542;2023-03-12T16:43:44;36.33;;;8.48;;
57107;SDS011;42987;52.916;6.542;2023-03-12T16:46:16;39.67;;;9.48;;
57107;SDS011;42987;52.916;6.542;2023-03-12T16:48:44;35.22;;;8.00;;
57107;SDS011;42987;52.916;6.542;2023-03-12T16:51:14;42.03;;;9.23;;
57107;SDS011;42987;52.916;6.542;2023-03-12T16:53:41;41.78;;;10.15;;
57107;SDS011;42987;52.916;6.542;2023-03-12T16:56:17;35.20;;;8.98;;
57107;SDS011;42987;52.916;6.542;2023-03-12T16:58:46;46.42;;;9.90;;
57107;SDS011;42987;52.916;6.542;2023-03-12T17:01:17;34.97;;;8.65;;
57107;SDS011;42987;52.916;6.542;2023-03-12T17:03:46;38.80;;;9.00;;
57107;SDS011;42987;52.916;6.542;2023-03-12T17:06:22;37.90;;;9.05;;
57107;SDS011;42987;52.916;6.542;2023-03-12T17:08:50;37.75;;;9.13;;